createdAt,value
2019-05-05T00:01:14.787Z,5.11
2019-05-05T00:03:48.224Z,5.03
2019-05-05T00:06:19.885Z,5.02
2019-05-05T00:08:51.836Z,5.02
2019-05-05T00:11:25.012Z,5.02
2019-05-05T00:13:59.445Z,5.07
2019-05-05T00:16:34.969Z,5.00
2019-05-05T00:19:06.750Z,4.92
2019-05-05T00:21:39.901Z,4.95
2019-05-05T00:24:11.249Z,4.96
2019-05-05T00:26:42.766Z,5.00
2019-05-05T00:29:14.959Z,4.90
2019-05-05T00:31:48.850Z,4.88
2019-05-05T00:34:20.471Z,4.86
2019-05-05T00:36:52.040Z,4.82
2019-05-05T00:39:25.531Z,4.84
2019-05-05T00:41:57.103Z,4.76
2019-05-05T00:44:28.781Z,4.70
2019-05-05T00:47:01.938Z,4.73
2019-05-05T00:49:45.608Z,4.56
2019-05-05T00:52:08.607Z,4.55
2019-05-05T00:54:40.062Z,4.52
2019-05-05T00:57:11.976Z,4.45
2019-05-05T00:59:45.279Z,4.39
2019-05-05T01:02:19.581Z,4.33
2019-05-05T01:04:54.971Z,4.37
2019-05-05T01:07:26.025Z,4.31
2019-05-05T01:09:58.251Z,4.24
2019-05-05T01:12:30.665Z,4.23
2019-05-05T01:15:04.483Z,4.27
2019-05-05T01:17:36.635Z,4.26
2019-05-05T01:20:09.898Z,4.27
2019-05-05T01:22:40.944Z,4.16
2019-05-05T01:25:14.903Z,4.07
2019-05-05T01:27:48.181Z,4.13
2019-05-05T01:30:24.488Z,4.11
2019-05-05T01:32:57.341Z,4.09
2019-05-05T01:35:29.834Z,4.20
2019-05-05T01:38:04.787Z,4.24
2019-05-05T01:40:37.724Z,4.28
2019-05-05T01:43:10.813Z,4.29
2019-05-05T01:45:42.752Z,4.30
2019-05-05T01:48:14.385Z,4.12
2019-05-05T01:50:47.623Z,4.07
2019-05-05T01:53:19.704Z,3.99
2019-05-05T01:55:51.898Z,3.96
2019-05-05T01:58:25.296Z,4.03
2019-05-05T02:00:57.484Z,4.03
2019-05-05T02:03:29.459Z,3.96
2019-05-05T02:06:01.783Z,3.93
2019-05-05T02:08:34.985Z,3.78
2019-05-05T02:11:08.784Z,3.74
2019-05-05T02:13:40.100Z,3.75
2019-05-05T02:16:12.247Z,3.71
2019-05-05T02:18:45.087Z,3.61
2019-05-05T02:21:17.337Z,3.65
2019-05-05T02:23:49.337Z,3.64
2019-05-05T02:26:20.457Z,3.57
2019-05-05T02:28:54.282Z,3.53
2019-05-05T02:31:28.709Z,3.45
2019-05-05T02:34:00.542Z,3.46
2019-05-05T02:36:32.262Z,3.49
2019-05-05T02:39:05.392Z,3.44
2019-05-05T02:41:38.106Z,3.44
2019-05-05T02:44:10.721Z,3.36
2019-05-05T02:46:45.980Z,3.32
2019-05-05T02:49:19.218Z,3.39
2019-05-05T02:51:55.154Z,3.37
2019-05-05T02:54:26.525Z,3.28
2019-05-05T02:56:59.660Z,3.32
2019-05-05T02:59:35.261Z,3.34
2019-05-05T03:02:09.482Z,3.32
2019-05-05T03:04:44.327Z,3.29
2019-05-05T03:07:18.841Z,3.20
2019-05-05T03:09:54.424Z,3.14
2019-05-05T03:12:27.695Z,3.14
2019-05-05T03:15:01.303Z,3.10
2019-05-05T03:17:34.236Z,3.19
2019-05-05T03:20:08.702Z,3.24
2019-05-05T03:22:40.585Z,3.23
2019-05-05T03:25:13.702Z,3.22
2019-05-05T03:27:45.289Z,3.11
2019-05-05T03:30:18.664Z,3.04
2019-05-05T03:32:50.783Z,3.12
2019-05-05T03:35:24.200Z,3.10
2019-05-05T03:37:56.180Z,3.08
2019-05-05T03:40:29.883Z,2.92
2019-05-05T03:43:04.200Z,2.85
2019-05-05T03:45:37.784Z,2.85
2019-05-05T03:48:09.422Z,2.90
2019-05-05T03:50:42.242Z,2.92
2019-05-05T03:53:14.187Z,2.96
2019-05-05T03:55:46.835Z,3.00
2019-05-05T03:58:19.262Z,2.99
2019-05-05T04:00:51.760Z,2.92
2019-05-05T04:03:24.465Z,2.90
2019-05-05T04:05:58.421Z,3.00
2019-05-05T04:08:30.173Z,2.95
2019-05-05T04:11:03.974Z,2.89
2019-05-05T04:13:36.177Z,2.88
2019-05-05T04:16:09.999Z,2.96
2019-05-05T04:18:43.699Z,3.06
2019-05-05T04:21:15.613Z,3.00
2019-05-05T04:23:46.719Z,2.99
2019-05-05T04:26:19.103Z,3.09
2019-05-05T04:28:50.620Z,3.19
2019-05-05T04:31:24.155Z,3.15
2019-05-05T04:33:55.300Z,3.05
2019-05-05T04:36:26.574Z,3.03
2019-05-05T04:38:58.840Z,2.93
2019-05-05T04:41:30.689Z,2.81
2019-05-05T04:44:04.008Z,2.79
2019-05-05T04:46:36.022Z,2.78
2019-05-05T04:49:08.725Z,2.79
2019-05-05T04:51:47.739Z,2.75
2019-05-05T04:54:18.364Z,2.84
2019-05-05T04:56:50.770Z,2.81
2019-05-05T04:59:23.530Z,2.76
2019-05-05T05:01:56.741Z,2.79
2019-05-05T05:04:29.662Z,2.88
2019-05-05T05:07:04.629Z,2.95
2019-05-05T05:09:36.458Z,3.03
2019-05-05T05:12:07.549Z,3.04
2019-05-05T05:14:41.522Z,3.09
2019-05-05T05:17:14.231Z,3.21
2019-05-05T05:19:47.139Z,3.32
2019-05-05T05:22:18.577Z,3.41
2019-05-05T05:24:50.605Z,3.50
2019-05-05T05:27:24.294Z,3.65
2019-05-05T05:29:56.474Z,3.76
2019-05-05T05:32:28.729Z,3.89
2019-05-05T05:35:00.537Z,3.98
2019-05-05T05:37:34.157Z,4.15
2019-05-05T05:40:07.689Z,4.24
2019-05-05T05:42:38.710Z,4.40
2019-05-05T05:45:14.454Z,4.47
2019-05-05T05:47:47.512Z,4.52
2019-05-05T05:50:21.219Z,4.65
2019-05-05T05:52:54.148Z,4.65
2019-05-05T05:55:26.238Z,4.75
2019-05-05T05:57:58.979Z,4.87
2019-05-05T06:00:30.715Z,4.97
2019-05-05T06:03:03.969Z,4.95
2019-05-05T06:05:36.297Z,5.03
2019-05-05T06:08:08.304Z,5.12
2019-05-05T06:10:39.538Z,5.24
2019-05-05T06:13:11.727Z,5.34
2019-05-05T06:15:44.462Z,5.46
2019-05-05T06:18:16.287Z,5.55
2019-05-05T06:20:48.572Z,5.54
2019-05-05T06:23:21.263Z,5.50
2019-05-05T06:25:54.846Z,5.55
2019-05-05T06:28:26.547Z,5.67
2019-05-05T06:30:58.086Z,5.70
2019-05-05T06:33:29.451Z,5.84
2019-05-05T06:36:03.617Z,6.03
2019-05-05T06:38:34.903Z,6.26
2019-05-05T06:41:07.752Z,6.30
2019-05-05T06:43:38.745Z,6.35
2019-05-05T06:46:11.696Z,6.39
2019-05-05T06:48:44.913Z,6.51
2019-05-05T06:51:16.657Z,6.67
2019-05-05T06:53:47.969Z,6.84
2019-05-05T06:56:19.084Z,6.93
2019-05-05T06:58:50.433Z,7.01
2019-05-05T07:01:22.298Z,7.03
2019-05-05T07:03:55.736Z,6.93
2019-05-05T07:06:27.638Z,6.87
2019-05-05T07:08:59.217Z,6.89
2019-05-05T07:11:31.055Z,6.90
2019-05-05T07:14:03.734Z,7.01
2019-05-05T07:16:36.535Z,7.07
2019-05-05T07:19:08.061Z,7.11
2019-05-05T07:21:40.478Z,7.08
2019-05-05T07:24:14.369Z,7.14
2019-05-05T07:26:45.604Z,7.19
2019-05-05T07:29:18.309Z,7.00
2019-05-05T07:31:49.461Z,6.89
2019-05-05T07:34:21.422Z,7.03
2019-05-05T07:36:54.821Z,7.12
2019-05-05T07:39:27.303Z,7.44
2019-05-05T07:41:59.408Z,7.59
2019-05-05T07:44:31.002Z,7.47
2019-05-05T07:47:03.665Z,7.36
2019-05-05T07:49:35.556Z,7.34
2019-05-05T07:52:07.662Z,7.39
2019-05-05T07:54:39.542Z,7.29
2019-05-05T07:57:11.137Z,7.26
2019-05-05T07:59:45.012Z,7.32
2019-05-05T08:02:16.648Z,7.65
2019-05-05T08:04:48.256Z,7.88
2019-05-05T08:07:24.009Z,8.05
2019-05-05T08:09:54.956Z,8.27
2019-05-05T08:12:27.598Z,8.29
2019-05-05T08:14:59.641Z,8.55
2019-05-05T08:17:39.689Z,8.49
2019-05-05T08:20:19.440Z,8.27
2019-05-05T08:22:53.661Z,8.24
2019-05-05T08:25:36.263Z,8.42
2019-05-05T08:28:04.267Z,8.72
2019-05-05T08:30:39.829Z,9.10
2019-05-05T08:33:13.932Z,9.32
2019-05-05T08:35:45.032Z,9.52
2019-05-05T08:38:18.313Z,9.69
2019-05-05T08:40:51.053Z,9.70
2019-05-05T08:43:24.139Z,9.65
2019-05-05T08:46:04.909Z,9.65
2019-05-05T08:48:38.710Z,9.93
2019-05-05T08:51:11.617Z,9.92
2019-05-05T08:53:47.875Z,9.80
2019-05-05T08:56:15.597Z,9.52
2019-05-05T08:58:49.927Z,9.53
2019-05-05T09:01:23.823Z,9.82
2019-05-05T09:03:56.858Z,9.98
2019-05-05T09:06:28.828Z,10.23
2019-05-05T09:09:04.419Z,10.57
2019-05-05T09:11:36.370Z,10.67
2019-05-05T09:14:09.334Z,10.73
2019-05-05T09:16:41.051Z,10.88
2019-05-05T09:19:14.659Z,11.01
2019-05-05T09:21:46.398Z,10.54
2019-05-05T09:24:20.375Z,10.34
2019-05-05T09:26:54.711Z,10.26
2019-05-05T09:29:27.711Z,10.26
2019-05-05T09:31:58.958Z,9.96
2019-05-05T09:34:30.330Z,10.23
2019-05-05T09:37:04.731Z,10.13
2019-05-05T09:39:37.980Z,10.00
2019-05-05T09:42:10.017Z,9.94
2019-05-05T09:44:43.789Z,10.13
2019-05-05T09:47:15.008Z,10.26
2019-05-05T09:49:47.099Z,10.25
2019-05-05T09:52:18.434Z,10.38
2019-05-05T09:54:51.211Z,10.44
2019-05-05T09:57:23.887Z,10.35
2019-05-05T09:59:58.323Z,10.38
2019-05-05T10:02:29.935Z,10.38
2019-05-05T10:05:03.971Z,10.39
2019-05-05T10:07:35.732Z,10.40
2019-05-05T10:10:08.513Z,10.64
2019-05-05T10:12:40.090Z,10.53
2019-05-05T10:15:13.934Z,10.59
2019-05-05T10:17:45.884Z,10.81
2019-05-05T10:20:17.308Z,10.77
2019-05-05T10:22:48.708Z,10.72
2019-05-05T10:25:23.889Z,10.90
2019-05-05T10:27:58.208Z,10.89
2019-05-05T10:30:30.448Z,10.89
2019-05-05T10:33:03.796Z,10.95
2019-05-05T10:35:36.107Z,11.13
2019-05-05T10:38:08.212Z,10.96
2019-05-05T10:40:39.404Z,11.15
2019-05-05T10:43:12.046Z,11.08
2019-05-05T10:45:51.807Z,11.11
2019-05-05T10:48:29.202Z,11.05
2019-05-05T10:51:04.230Z,11.11
2019-05-05T10:53:36.321Z,11.10
2019-05-05T10:56:09.073Z,11.15
2019-05-05T10:58:40.941Z,11.18
2019-05-05T11:01:14.561Z,11.38
2019-05-05T11:03:46.115Z,11.59
2019-05-05T11:06:18.100Z,11.36
2019-05-05T11:08:50.685Z,11.26
2019-05-05T11:11:27.276Z,11.24
2019-05-05T11:13:59.815Z,11.22
2019-05-05T11:16:31.628Z,11.13
2019-05-05T11:19:04.299Z,11.07
2019-05-05T11:21:36.195Z,11.21
2019-05-05T11:24:08.456Z,11.19
2019-05-05T11:26:41.712Z,11.31
2019-05-05T11:29:14.394Z,11.38
2019-05-05T11:31:46.912Z,11.46
2019-05-05T11:34:19.849Z,11.68
2019-05-05T11:36:54.564Z,11.87
2019-05-05T11:39:26.217Z,12.03
2019-05-05T11:41:58.948Z,12.07
2019-05-05T11:44:30.800Z,11.90
2019-05-05T11:47:04.476Z,12.00
2019-05-05T11:49:36.146Z,12.09
2019-05-05T11:52:08.927Z,12.12
2019-05-05T11:54:43.530Z,12.00
2019-05-05T11:57:17.201Z,12.01
2019-05-05T11:59:50.328Z,11.92
2019-05-05T12:02:24.386Z,12.02
2019-05-05T12:04:59.441Z,11.97
2019-05-05T12:07:30.825Z,11.88
2019-05-05T12:10:02.624Z,12.03
2019-05-05T12:12:35.120Z,12.14
2019-05-05T12:15:08.519Z,12.07
2019-05-05T12:17:40.017Z,12.21
2019-05-05T12:20:14.785Z,12.32
2019-05-05T12:22:46.407Z,12.05
2019-05-05T12:25:27.769Z,12.14
2019-05-05T12:27:54.059Z,12.29
2019-05-05T12:30:25.853Z,12.31
2019-05-05T12:32:57.234Z,12.23
2019-05-05T12:35:28.614Z,12.08
2019-05-05T12:38:01.682Z,12.00
2019-05-05T12:40:33.969Z,11.87
2019-05-05T12:43:05.272Z,11.93
2019-05-05T12:45:43.924Z,12.30
2019-05-05T12:48:24.202Z,12.56
2019-05-05T12:50:58.986Z,12.83
2019-05-05T12:53:33.258Z,12.96
2019-05-05T12:56:15.178Z,12.90
2019-05-05T12:58:55.195Z,12.84
2019-05-05T13:01:49.260Z,12.72
2019-05-05T13:04:30.221Z,12.53
2019-05-05T13:07:10.828Z,12.31
2019-05-05T13:09:44.955Z,12.18
2019-05-05T13:12:17.035Z,11.96
2019-05-05T13:14:49.791Z,11.90
2019-05-05T13:17:21.072Z,12.08
2019-05-05T13:19:54.192Z,12.30
2019-05-05T13:22:27.204Z,12.42
2019-05-05T13:25:00.244Z,12.57
2019-05-05T13:27:35.049Z,12.45
2019-05-05T13:30:08.624Z,12.51
2019-05-05T13:32:40.974Z,12.62
2019-05-05T13:35:14.382Z,12.53
2019-05-05T13:37:46.845Z,12.48
2019-05-05T13:40:18.949Z,12.54
2019-05-05T13:42:50.277Z,12.88
2019-05-05T13:45:24.721Z,12.73
2019-05-05T13:47:57.621Z,12.90
2019-05-05T13:50:31.260Z,12.68
2019-05-05T13:53:23.675Z,12.48
2019-05-05T13:56:11.865Z,12.41
2019-05-05T13:58:38.193Z,12.35
2019-05-05T14:01:10.850Z,12.54
2019-05-05T14:03:44.592Z,12.59
2019-05-05T14:06:16.415Z,12.51
2019-05-05T14:08:49.355Z,12.45
2019-05-05T14:11:22.211Z,12.42
2019-05-05T14:13:53.386Z,12.51
2019-05-05T14:16:24.421Z,12.49
2019-05-05T14:18:56.911Z,12.65
2019-05-05T14:21:30.130Z,12.98
2019-05-05T14:24:03.863Z,13.18
2019-05-05T14:26:35.756Z,13.24
2019-05-05T14:29:09.111Z,13.39
2019-05-05T14:31:44.561Z,13.33
2019-05-05T14:34:18.149Z,13.27
2019-05-05T14:36:53.488Z,12.89
2019-05-05T14:39:26.367Z,12.89
2019-05-05T14:41:59.720Z,12.67
2019-05-05T14:44:31.422Z,12.54
2019-05-05T14:47:04.551Z,12.46
2019-05-05T14:49:36.332Z,12.40
2019-05-05T14:52:07.961Z,12.33
2019-05-05T14:54:43.372Z,12.22
2019-05-05T14:57:20.837Z,12.16
2019-05-05T14:59:54.014Z,12.10
2019-05-05T15:02:27.725Z,11.97
2019-05-05T15:05:01.003Z,11.92
2019-05-05T15:07:40.805Z,11.91
2019-05-05T15:10:14.478Z,11.86
2019-05-05T15:12:50.326Z,11.89
2019-05-05T15:15:23.571Z,11.87
2019-05-05T15:17:55.307Z,11.86
2019-05-05T15:20:28.824Z,11.70
2019-05-05T15:23:00.456Z,11.65
2019-05-05T15:25:31.512Z,11.63
2019-05-05T15:28:04.767Z,11.62
2019-05-05T15:30:39.478Z,11.55
2019-05-05T15:33:13.775Z,11.48
2019-05-05T15:35:46.655Z,11.46
2019-05-05T15:38:18.657Z,11.47
2019-05-05T15:40:50.088Z,11.49
2019-05-05T15:43:24.281Z,11.50
2019-05-05T15:45:57.400Z,11.47
2019-05-05T15:48:28.612Z,11.43
2019-05-05T15:51:04.231Z,11.49
2019-05-05T15:53:36.912Z,11.50
2019-05-05T15:56:10.562Z,11.51
2019-05-05T15:58:43.525Z,11.48
2019-05-05T16:01:15.817Z,11.49
2019-05-05T16:03:47.487Z,11.45
2019-05-05T16:06:21.173Z,11.39
2019-05-05T16:08:56.336Z,11.39
2019-05-05T16:11:27.594Z,11.34
2019-05-05T16:14:01.198Z,11.22
2019-05-05T16:16:36.731Z,11.17
2019-05-05T16:19:10.677Z,11.15
2019-05-05T16:21:45.482Z,11.17
2019-05-05T16:24:19.660Z,11.15
2019-05-05T16:26:50.830Z,11.03
2019-05-05T16:29:23.747Z,11.02
2019-05-05T16:31:56.860Z,10.98
2019-05-05T16:34:30.574Z,11.05
2019-05-05T16:37:03.901Z,11.17
2019-05-05T16:39:35.327Z,11.33
2019-05-05T16:42:08.364Z,11.48
2019-05-05T16:44:40.102Z,11.66
2019-05-05T16:47:13.627Z,11.79
2019-05-05T16:49:45.931Z,11.80
2019-05-05T16:52:20.771Z,11.90
2019-05-05T16:54:55.858Z,12.03
2019-05-05T16:57:33.989Z,12.08
2019-05-05T17:00:00.900Z,12.15
2019-05-05T17:02:35.942Z,12.11
2019-05-05T17:05:08.954Z,12.12
2019-05-05T17:07:40.643Z,12.08
2019-05-05T17:10:13.810Z,12.09
2019-05-05T17:13:04.867Z,12.03
2019-05-05T18:14:21.080Z,10.70
2019-05-05T18:16:54.379Z,10.63
2019-05-05T18:19:26.019Z,10.53
2019-05-05T18:21:57.817Z,10.48
2019-05-05T18:24:30.631Z,10.46
2019-05-05T18:27:04.421Z,10.30
2019-05-05T18:29:35.507Z,10.14
2019-05-05T18:32:07.381Z,9.94
2019-05-05T18:34:39.152Z,9.75
2019-05-05T18:37:11.455Z,9.60
2019-05-05T18:39:44.008Z,9.43
2019-05-05T18:42:17.039Z,9.36
2019-05-05T18:44:50.181Z,9.22
2019-05-05T18:47:26.403Z,9.20
2019-05-05T18:50:03.976Z,9.11
2019-05-05T18:52:35.201Z,9.03
2019-05-05T18:55:07.700Z,8.96
2019-05-05T18:57:39.333Z,8.91
2019-05-05T19:00:13.923Z,8.84
2019-05-05T19:02:46.890Z,8.74
2019-05-05T19:05:20.086Z,8.69
2019-05-05T19:07:56.150Z,8.65
2019-05-05T19:10:29.106Z,8.59
2019-05-05T19:13:01.078Z,8.49
2019-05-05T19:15:34.919Z,8.40
2019-05-05T19:18:06.793Z,8.25
2019-05-05T19:20:41.415Z,8.18
2019-05-05T19:23:14.736Z,8.12
2019-05-05T19:25:48.024Z,7.95
2019-05-05T19:28:20.881Z,7.96
2019-05-05T19:30:54.937Z,7.85
2019-05-05T19:33:27.469Z,7.85
2019-05-05T19:36:00.870Z,7.85
2019-05-05T19:38:34.515Z,7.79
2019-05-05T19:41:07.404Z,7.73
2019-05-05T19:43:40.847Z,7.80
2019-05-05T19:46:15.934Z,7.80
2019-05-05T19:48:47.903Z,7.72
2019-05-05T19:51:19.389Z,7.60
2019-05-05T19:53:51.135Z,7.46
2019-05-05T19:56:35.303Z,7.31
2019-05-05T19:59:20.567Z,7.16
2019-05-05T20:01:54.019Z,7.07
2019-05-05T20:04:25.271Z,7.00
2019-05-05T20:06:56.337Z,6.98
2019-05-05T20:09:27.561Z,6.90
2019-05-05T20:11:58.704Z,6.90
2019-05-05T20:14:29.769Z,6.93
2019-05-05T20:17:04.345Z,6.96
2019-05-05T20:19:36.632Z,7.01
2019-05-05T20:22:08.088Z,7.04
2019-05-05T20:24:40.082Z,6.96
2019-05-05T20:27:13.981Z,6.84
2019-05-05T20:29:48.062Z,6.78
2019-05-05T20:32:36.057Z,6.76
2019-05-05T20:35:07.618Z,6.70
2019-05-05T20:38:21.207Z,6.63
2019-05-05T20:40:58.885Z,6.63
2019-05-05T20:43:30.554Z,6.59
2019-05-05T20:46:04.464Z,6.49
2019-05-05T20:48:40.815Z,6.46
2019-05-05T20:51:10.592Z,6.38
2019-05-05T20:53:44.509Z,6.32
2019-05-05T20:56:15.613Z,6.25
2019-05-05T20:58:47.821Z,6.24
2019-05-05T21:01:20.008Z,6.25
2019-05-05T21:03:53.452Z,6.23
2019-05-05T21:06:25.970Z,6.26
2019-05-05T21:08:57.329Z,6.17
2019-05-05T21:11:28.774Z,6.09
2019-05-05T21:14:00.318Z,6.06
2019-05-05T21:16:34.195Z,6.03
2019-05-05T21:19:05.010Z,5.98
2019-05-05T21:21:37.940Z,5.88
2019-05-05T21:24:09.461Z,5.87
2019-05-05T21:26:42.509Z,5.79
2019-05-05T21:29:16.213Z,5.82
2019-05-05T21:31:52.061Z,5.76
2019-05-05T21:34:24.892Z,5.65
2019-05-05T21:36:56.420Z,5.55
2019-05-05T21:39:27.864Z,5.41
2019-05-05T21:41:59.507Z,5.37
2019-05-05T21:44:31.622Z,5.32
2019-05-05T21:47:03.910Z,5.29
2019-05-05T21:49:35.612Z,5.25
2019-05-05T21:52:08.773Z,5.24
2019-05-05T21:54:43.953Z,5.15
2019-05-05T21:57:16.887Z,5.12
2019-05-05T21:59:55.586Z,5.07
2019-05-05T22:02:23.584Z,4.95
2019-05-05T22:04:56.083Z,4.84
2019-05-05T22:07:27.310Z,4.74
2019-05-05T22:09:58.803Z,4.71
2019-05-05T22:12:30.793Z,4.69
2019-05-05T22:15:04.239Z,4.66
2019-05-05T22:17:38.015Z,4.65
2019-05-05T22:20:14.235Z,4.57
2019-05-05T22:22:45.787Z,4.55
2019-05-05T22:25:17.747Z,4.48
2019-05-05T22:27:49.294Z,4.38
2019-05-05T22:30:23.589Z,4.31
2019-05-05T22:32:54.395Z,4.25
2019-05-05T22:35:26.645Z,4.27
2019-05-05T22:37:56.955Z,4.22
2019-05-05T22:40:28.514Z,4.15
2019-05-05T22:42:59.777Z,4.06
2019-05-05T22:45:30.697Z,3.99
2019-05-05T22:48:00.918Z,4.03
2019-05-05T22:50:34.097Z,4.04
2019-05-05T22:53:05.312Z,4.04
2019-05-05T22:55:37.391Z,4.01
2019-05-05T22:58:09.073Z,4.03
2019-05-05T23:00:41.166Z,3.99
2019-05-05T23:03:14.588Z,3.92
2019-05-05T23:05:48.584Z,3.94
2019-05-05T23:08:21.249Z,3.91
2019-05-05T23:10:54.438Z,3.81
2019-05-05T23:13:27.084Z,3.69
2019-05-05T23:16:00.340Z,3.66
2019-05-05T23:18:34.752Z,3.71
2019-05-05T23:21:08.313Z,3.67
2019-05-05T23:23:41.187Z,3.61
2019-05-05T23:26:14.234Z,3.61
2019-05-05T23:28:45.676Z,3.51
2019-05-05T23:31:17.019Z,3.44
2019-05-05T23:33:49.095Z,3.44
2019-05-05T23:36:21.174Z,3.45
2019-05-05T23:38:54.947Z,3.42
2019-05-05T23:41:25.878Z,3.29
2019-05-05T23:43:57.533Z,3.24
2019-05-05T23:46:29.642Z,3.21
2019-05-05T23:49:01.685Z,3.17
2019-05-05T23:51:34.704Z,3.13
2019-05-05T23:54:06.830Z,3.15
2019-05-05T23:56:38.644Z,3.08
2019-05-05T23:59:10.050Z,2.97
